Terminal Aerodrome Forecast
Issued by NWS Portland, OR

Home | Current Version | Previous Version | Text Only | Print | Product List | Glossary On
Versions: 1 2 3 4 5 6 7 8 9 10 11 12 13 14 15 16
000
FTUS46 KPQR 051130
TAFSLE
TAF
KSLE 051130Z 0512/0612 33007KT P6SM BKN025 OVC035
     FM051800 35009KT P6SM SCT030 BKN050
     FM052100 01011KT P6SM SCT050 BKN120
     FM060400 35007KT P6SM SCT140=

USA.gov is the U.S. government's official web portal to all federal, state and local government web resources and services.